Weather at Václav Havel Airport Prague

Public forecast

Using degrees Celsius for public forecast. Weather courtesy of forecast.io.

Current aviation weather report (METAR) for Václav Havel Airport Prague

Retrieved 2021/07/24 01:00 UTC (14 minutes ago):

LKPR 240100Z 17002KT CAVOK 16/12 Q1014 NOSIG

Aviation forecast (TAF) for Václav Havel Airport Prague

Retrieved 2021-07-24 00:10 UTC (1 hour ago):

TAF LKPR 232300Z 2400/2506 12007KT CAVOK